createdAt,value
2019-04-29T00:01:31.259Z,8.90
2019-04-29T00:04:01.043Z,9.00
2019-04-29T00:06:30.907Z,8.90
2019-04-29T00:09:00.830Z,8.90
2019-04-29T00:11:32.219Z,8.90
2019-04-29T00:14:02.069Z,8.90
2019-04-29T00:16:36.401Z,8.90
2019-04-29T00:19:13.945Z,8.90
2019-04-29T00:21:43.809Z,8.90
2019-04-29T00:24:13.592Z,8.80
2019-04-29T00:26:44.536Z,8.80
2019-04-29T00:29:14.322Z,8.80
2019-04-29T00:31:44.099Z,8.80
2019-04-29T00:34:13.887Z,8.80
2019-04-29T00:36:47.973Z,8.70
2019-04-29T00:39:35.804Z,8.70
2019-04-29T00:42:22.180Z,8.70
2019-04-29T00:44:53.142Z,8.70
2019-04-29T00:47:22.926Z,8.70
2019-04-29T00:49:52.711Z,8.70
2019-04-29T00:52:22.837Z,8.60
2019-04-29T00:54:54.254Z,8.60
2019-04-29T00:57:24.053Z,8.60
2019-04-29T00:59:53.843Z,8.60
2019-04-29T01:02:23.613Z,8.60
2019-04-29T01:04:53.384Z,8.60
2019-04-29T01:07:23.243Z,8.60
2019-04-29T01:09:53.105Z,8.60
2019-04-29T01:12:22.878Z,8.60
2019-04-29T01:14:52.659Z,8.60
2019-04-29T01:17:23.005Z,8.60
2019-04-29T01:19:52.795Z,8.50
2019-04-29T01:22:22.843Z,8.50
2019-04-29T01:24:52.647Z,8.50
2019-04-29T01:27:24.133Z,8.50
2019-04-29T01:29:53.928Z,8.50
2019-04-29T01:32:23.795Z,8.50
2019-04-29T01:34:54.857Z,8.50
2019-04-29T01:37:35.261Z,8.50
2019-04-29T01:40:18.343Z,8.50
2019-04-29T01:42:48.109Z,8.40
2019-04-29T01:45:17.899Z,8.40
2019-04-29T01:47:47.672Z,8.40
2019-04-29T01:50:17.551Z,8.40
2019-04-29T01:52:47.328Z,8.40
2019-04-29T01:55:17.199Z,8.40
2019-04-29T01:57:46.963Z,8.30
2019-04-29T02:00:17.903Z,8.30
2019-04-29T02:02:47.677Z,8.30
2019-04-29T02:05:17.506Z,8.30
2019-04-29T02:07:47.292Z,8.30
2019-04-29T02:10:18.759Z,8.30
2019-04-29T02:12:48.535Z,8.30
2019-04-29T02:15:18.307Z,8.30
2019-04-29T02:17:48.108Z,8.20
2019-04-29T02:20:17.882Z,8.20
2019-04-29T02:22:55.159Z,8.20
2019-04-29T02:28:31.393Z,8.20
2019-04-29T02:31:02.879Z,8.10
2019-04-29T02:33:32.659Z,8.10
2019-04-29T02:36:02.435Z,8.10
2019-04-29T02:38:33.868Z,8.10
2019-04-29T02:41:11.065Z,8.10
2019-04-29T02:43:42.513Z,8.10
2019-04-29T02:46:12.280Z,8.10
2019-04-29T02:48:42.088Z,8.10
2019-04-29T02:51:13.507Z,8.10
2019-04-29T02:53:43.353Z,8.10
2019-04-29T02:56:13.132Z,8.10
2019-04-29T02:58:53.497Z,8.10
2019-04-29T03:01:27.333Z,8.10
2019-04-29T03:03:58.813Z,8.00
2019-04-29T03:06:28.580Z,8.00
2019-04-29T03:08:58.447Z,8.00
2019-04-29T03:11:28.394Z,8.00
2019-04-29T03:13:58.585Z,8.00
2019-04-29T03:16:28.446Z,8.00
2019-04-29T03:18:59.947Z,7.90
2019-04-29T03:21:34.376Z,7.90
2019-04-29T03:24:04.229Z,7.90
2019-04-29T03:26:34.012Z,7.90
2019-04-29T03:29:05.972Z,7.90
2019-04-29T03:31:39.410Z,7.90
2019-04-29T03:34:07.244Z,7.90
2019-04-29T03:36:37.034Z,7.90
2019-04-29T03:39:06.822Z,7.90
2019-04-29T03:41:36.676Z,7.90
2019-04-29T03:44:06.447Z,7.80
2019-04-29T03:46:36.299Z,7.80
2019-04-29T03:49:06.080Z,7.70
2019-04-29T03:51:36.025Z,7.70
2019-04-29T03:54:07.438Z,7.70
2019-04-29T03:56:37.228Z,7.70
2019-04-29T03:59:07.001Z,7.70
2019-04-29T04:01:38.457Z,7.70
2019-04-29T04:04:12.799Z,7.70
2019-04-29T04:06:50.087Z,7.70
2019-04-29T04:09:23.896Z,7.70
2019-04-29T04:11:53.685Z,7.60
2019-04-29T04:14:23.460Z,7.60
2019-04-29T04:19:36.064Z,7.60
2019-04-29T04:22:05.856Z,7.60
2019-04-29T04:24:35.666Z,7.60
2019-04-29T04:27:05.450Z,7.60
2019-04-29T04:29:35.228Z,7.60
2019-04-29T04:32:05.084Z,7.50
2019-04-29T04:34:34.923Z,7.50
2019-04-29T04:37:04.714Z,7.50
2019-04-29T04:39:36.136Z,7.60
2019-04-29T04:42:05.932Z,7.60
2019-04-29T04:47:29.081Z,7.60
2019-04-29T04:49:58.856Z,7.60
2019-04-29T04:52:28.920Z,7.70
2019-04-29T04:54:58.816Z,7.70
2019-04-29T04:57:28.669Z,7.70
2019-04-29T04:59:59.519Z,7.80
2019-04-29T05:02:29.358Z,7.80
2019-04-29T05:04:59.135Z,7.80
2019-04-29T05:07:28.910Z,7.90
2019-04-29T05:09:59.754Z,7.80
2019-04-29T05:12:29.538Z,7.90
2019-04-29T05:14:59.315Z,7.90
2019-04-29T05:17:29.098Z,7.90
2019-04-29T05:19:58.868Z,7.90
2019-04-29T05:22:28.631Z,7.90
2019-04-29T05:24:58.419Z,8.00
2019-04-29T05:27:28.187Z,8.00
2019-04-29T05:29:58.945Z,8.00
2019-04-29T05:32:28.711Z,8.10
2019-04-29T05:35:02.618Z,8.10
2019-04-29T05:37:34.026Z,8.10
2019-04-29T05:40:05.884Z,8.10
2019-04-29T05:42:35.655Z,8.10
2019-04-29T05:45:09.036Z,8.20
2019-04-29T05:47:43.408Z,8.20
2019-04-29T05:50:18.468Z,8.30
2019-04-29T05:52:52.535Z,8.30
2019-04-29T05:55:22.340Z,8.40
2019-04-29T05:57:55.917Z,8.40
2019-04-29T06:00:24.289Z,8.40
2019-04-29T06:02:54.141Z,8.50
2019-04-29T06:05:23.933Z,8.50
2019-04-29T06:07:56.243Z,8.50
2019-04-29T06:10:25.190Z,8.50
2019-04-29T06:12:54.979Z,8.50
2019-04-29T06:15:24.777Z,8.50
2019-04-29T06:17:54.556Z,8.60
2019-04-29T06:20:24.416Z,8.70
2019-04-29T06:22:54.188Z,8.80
2019-04-29T06:25:23.974Z,8.80
2019-04-29T06:27:53.743Z,8.90
2019-04-29T06:30:23.518Z,8.90
2019-04-29T06:32:53.310Z,8.90
2019-04-29T06:35:23.099Z,9.00
2019-04-29T06:37:52.874Z,9.00
2019-04-29T06:40:22.648Z,9.10
2019-04-29T06:42:53.461Z,9.10
2019-04-29T06:45:23.960Z,9.10
2019-04-29T06:47:53.754Z,9.20
2019-04-29T06:50:23.526Z,9.20
2019-04-29T06:52:53.325Z,9.30
2019-04-29T06:55:23.096Z,9.40
2019-04-29T06:57:52.876Z,9.40
2019-04-29T07:00:24.009Z,9.40
2019-04-29T07:02:54.016Z,9.40
2019-04-29T07:05:23.827Z,9.40
2019-04-29T07:07:53.617Z,9.40
2019-04-29T07:10:27.087Z,9.50
2019-04-29T07:12:55.957Z,9.50
2019-04-29T07:15:25.737Z,9.50
2019-04-29T07:17:55.531Z,9.60
2019-04-29T07:20:25.329Z,9.70
2019-04-29T07:22:56.501Z,9.80
2019-04-29T07:25:28.809Z,9.90
2019-04-29T07:27:58.104Z,10.00
2019-04-29T07:30:29.505Z,10.00
2019-04-29T07:32:59.489Z,10.10
2019-04-29T07:35:29.286Z,10.10
2019-04-29T07:37:59.088Z,10.20
2019-04-29T07:40:28.894Z,10.20
2019-04-29T07:43:02.664Z,10.30
2019-04-29T07:45:43.532Z,10.30
2019-04-29T07:48:06.484Z,10.30
2019-04-29T07:50:34.947Z,10.40
2019-04-29T07:53:05.828Z,10.50
2019-04-29T07:55:35.624Z,10.60
2019-04-29T07:58:05.418Z,10.70
2019-04-29T08:00:35.855Z,10.70
2019-04-29T08:03:07.624Z,10.80
2019-04-29T08:05:37.420Z,10.90
2019-04-29T08:08:07.232Z,11.00
2019-04-29T08:10:37.016Z,11.00
2019-04-29T08:13:06.832Z,11.10
2019-04-29T08:15:41.012Z,11.10
2019-04-29T08:18:11.244Z,11.20
2019-04-29T08:20:41.408Z,11.30
2019-04-29T08:23:11.327Z,11.40
2019-04-29T08:25:41.120Z,11.40
2019-04-29T08:28:10.933Z,11.50
2019-04-29T08:30:41.846Z,11.60
2019-04-29T08:33:13.280Z,11.70
2019-04-29T08:35:43.120Z,11.80
2019-04-29T08:38:13.900Z,11.80
2019-04-29T08:40:45.322Z,12.00
2019-04-29T08:43:20.556Z,12.00
2019-04-29T08:45:56.471Z,12.10
2019-04-29T08:48:26.286Z,12.10
2019-04-29T08:50:56.084Z,12.20
2019-04-29T08:53:25.890Z,12.30
2019-04-29T08:55:55.689Z,12.30
2019-04-29T08:58:25.489Z,12.30
2019-04-29T09:00:57.610Z,12.40
2019-04-29T09:03:39.552Z,12.50
2019-04-29T09:06:05.410Z,12.70
2019-04-29T09:08:33.107Z,12.70
2019-04-29T09:11:02.112Z,12.80
2019-04-29T09:13:31.919Z,12.90
2019-04-29T09:16:01.712Z,13.00
2019-04-29T09:18:31.512Z,13.10
2019-04-29T09:21:01.316Z,13.20
2019-04-29T09:23:32.865Z,13.30
2019-04-29T09:26:24.250Z,13.40
2019-04-29T09:28:53.798Z,13.60
2019-04-29T09:31:23.583Z,13.80
2019-04-29T09:34:06.044Z,13.90
2019-04-29T09:36:24.908Z,14.00
2019-04-29T09:38:54.699Z,14.00
2019-04-29T09:41:35.105Z,14.20
2019-04-29T09:44:08.911Z,14.40
2019-04-29T09:46:38.913Z,14.50
2019-04-29T09:49:09.294Z,14.40
2019-04-29T09:51:42.974Z,14.40
2019-04-29T09:54:14.426Z,14.30
2019-04-29T09:56:44.419Z,14.40
2019-04-29T09:59:24.926Z,14.60
2019-04-29T10:01:58.796Z,14.80
2019-04-29T10:04:30.236Z,15.00
2019-04-29T10:07:00.126Z,15.10
2019-04-29T10:09:29.998Z,15.10
2019-04-29T10:11:59.937Z,15.00
2019-04-29T10:14:29.757Z,15.10
2019-04-29T10:17:16.725Z,15.10
2019-04-29T10:20:07.884Z,15.10
2019-04-29T10:22:36.445Z,15.20
2019-04-29T10:25:07.854Z,15.20
2019-04-29T10:27:38.637Z,15.30
2019-04-29T10:30:09.435Z,15.30
2019-04-29T10:32:42.354Z,15.40
2019-04-29T10:35:11.153Z,15.50
2019-04-29T10:37:40.948Z,15.60
2019-04-29T10:40:19.943Z,15.80
2019-04-29T10:42:54.115Z,15.80
2019-04-29T10:45:25.568Z,15.70
2019-04-29T10:48:06.107Z,15.50
2019-04-29T10:50:37.605Z,15.60
2019-04-29T10:53:11.150Z,15.60
2019-04-29T10:55:41.080Z,15.70
2019-04-29T10:58:11.320Z,15.80
2019-04-29T11:00:59.986Z,16.00
2019-04-29T11:03:29.779Z,16.20
2019-04-29T11:06:01.843Z,16.50
2019-04-29T11:08:45.669Z,16.70
2019-04-29T11:11:22.737Z,16.90
2019-04-29T11:13:50.522Z,17.00
2019-04-29T11:16:22.857Z,16.90
2019-04-29T11:18:50.571Z,16.90
2019-04-29T11:21:20.393Z,16.90
2019-04-29T11:24:03.765Z,17.00
2019-04-29T11:26:47.707Z,16.90
2019-04-29T11:29:17.510Z,16.70
2019-04-29T11:31:49.241Z,16.60
2019-04-29T11:34:21.908Z,16.60
2019-04-29T11:36:51.728Z,16.60
2019-04-29T11:39:21.683Z,16.60
2019-04-29T11:41:54.541Z,16.60
2019-04-29T11:44:26.650Z,16.70
2019-04-29T11:46:54.638Z,16.90
2019-04-29T11:49:26.077Z,17.00
2019-04-29T11:52:09.271Z,16.90
2019-04-29T11:54:27.381Z,16.70
2019-04-29T11:56:57.266Z,16.50
2019-04-29T11:59:31.295Z,16.40
2019-04-29T12:02:06.239Z,16.40
2019-04-29T12:04:43.744Z,16.50
2019-04-29T12:07:13.628Z,16.80
2019-04-29T12:09:43.491Z,17.10
2019-04-29T12:12:14.966Z,17.40
2019-04-29T12:14:49.267Z,17.70
2019-04-29T12:17:30.048Z,17.70
2019-04-29T12:20:18.086Z,17.70
2019-04-29T12:22:48.963Z,17.60
2019-04-29T12:25:18.983Z,17.60
2019-04-29T12:27:52.813Z,17.70
2019-04-29T12:30:22.067Z,17.80
2019-04-29T12:33:05.800Z,18.10
2019-04-29T12:35:51.535Z,18.30
2019-04-29T12:38:19.057Z,18.40
2019-04-29T12:40:56.715Z,18.30
2019-04-29T12:43:48.582Z,18.10
2019-04-29T12:46:29.744Z,18.00
2019-04-29T12:49:03.528Z,18.00
2019-04-29T12:51:31.091Z,18.40
2019-04-29T12:54:00.900Z,18.60
2019-04-29T12:56:35.301Z,18.70
2019-04-29T12:59:05.544Z,18.70
2019-04-29T13:01:58.097Z,18.60
2019-04-29T13:04:28.017Z,18.40
2019-04-29T13:07:15.011Z,18.30
2019-04-29T13:09:46.451Z,18.20
2019-04-29T13:12:19.694Z,18.20
2019-04-29T13:15:02.318Z,18.40
2019-04-29T13:17:30.351Z,18.70
2019-04-29T13:20:02.550Z,18.90
2019-04-29T13:22:34.047Z,19.10
2019-04-29T13:25:06.059Z,19.20
2019-04-29T13:27:35.971Z,19.30
2019-04-29T13:30:14.856Z,19.40
2019-04-29T13:32:41.905Z,19.50
2019-04-29T13:35:12.752Z,19.40
2019-04-29T13:37:42.733Z,19.50
2019-04-29T13:40:12.823Z,19.60
2019-04-29T13:42:48.614Z,19.60
2019-04-29T13:45:27.830Z,19.60
2019-04-29T13:48:15.949Z,19.70
2019-04-29T13:50:47.405Z,19.80
2019-04-29T13:53:18.598Z,19.70
2019-04-29T13:55:50.264Z,19.60
2019-04-29T13:58:22.148Z,19.50
2019-04-29T14:01:02.734Z,19.30
2019-04-29T14:03:36.589Z,19.30
2019-04-29T14:06:07.979Z,19.30
2019-04-29T14:08:37.796Z,19.40
2019-04-29T14:11:08.330Z,19.40
2019-04-29T14:13:39.008Z,19.40
2019-04-29T14:16:12.050Z,19.30
2019-04-29T14:18:43.543Z,19.30
2019-04-29T14:21:12.777Z,19.20
2019-04-29T14:23:42.597Z,19.30
2019-04-29T14:26:12.401Z,19.20
2019-04-29T14:28:42.206Z,19.30
2019-04-29T14:31:13.083Z,19.20
2019-04-29T14:33:55.946Z,19.10
2019-04-29T14:36:26.315Z,19.10
2019-04-29T14:38:57.353Z,19.10
2019-04-29T14:41:28.811Z,19.00
2019-04-29T14:44:05.971Z,18.90
2019-04-29T14:46:49.474Z,18.90
2019-04-29T14:49:23.835Z,18.70
2019-04-29T14:51:53.663Z,18.60
2019-04-29T14:54:23.438Z,18.60
2019-04-29T14:56:53.263Z,18.60
2019-04-29T14:59:23.085Z,18.60
2019-04-29T15:01:57.307Z,18.50
2019-04-29T15:04:31.462Z,18.40
2019-04-29T15:07:01.385Z,18.20
2019-04-29T15:09:31.203Z,18.10
2019-04-29T15:12:05.195Z,18.10
2019-04-29T15:14:39.371Z,18.00
2019-04-29T15:17:27.219Z,17.90
2019-04-29T15:20:01.919Z,17.70
2019-04-29T15:22:37.419Z,17.60
2019-04-29T15:25:08.061Z,17.70
2019-04-29T15:27:37.885Z,17.90
2019-04-29T15:30:08.895Z,18.20
2019-04-29T15:32:38.709Z,18.40
2019-04-29T15:35:08.665Z,18.40
2019-04-29T15:37:38.604Z,18.40
2019-04-29T15:40:09.130Z,18.50
2019-04-29T15:42:43.151Z,18.60
2019-04-29T15:45:10.753Z,18.50
2019-04-29T15:47:41.580Z,18.40
2019-04-29T15:50:18.842Z,18.20
2019-04-29T15:52:48.075Z,18.10
2019-04-29T15:55:19.465Z,18.10
2019-04-29T15:57:51.454Z,18.10
2019-04-29T16:00:23.053Z,18.10
2019-04-29T16:02:52.409Z,18.00
2019-04-29T16:05:56.072Z,17.90
2019-04-29T16:08:29.485Z,17.90
2019-04-29T16:11:12.795Z,17.90
2019-04-29T16:13:47.996Z,17.80
2019-04-29T16:16:14.601Z,17.60
2019-04-29T16:18:44.403Z,17.50
2019-04-29T16:21:14.184Z,17.30
2019-04-29T16:23:43.977Z,17.10
2019-04-29T16:26:13.757Z,17.00
2019-04-29T16:28:43.543Z,16.90
2019-04-29T16:31:14.463Z,16.80
2019-04-29T16:33:47.451Z,16.70
2019-04-29T16:36:17.162Z,16.70
2019-04-29T16:38:51.529Z,16.60
2019-04-29T16:41:20.670Z,16.50
2019-04-29T16:43:52.147Z,16.40
2019-04-29T16:46:34.802Z,16.30
2019-04-29T16:48:55.331Z,16.20
2019-04-29T16:51:25.246Z,16.10
2019-04-29T16:53:55.119Z,16.00
2019-04-29T16:56:24.893Z,15.90
2019-04-29T16:58:54.707Z,15.90
2019-04-29T17:01:24.681Z,15.80
2019-04-29T17:03:54.597Z,15.80
2019-04-29T17:06:24.380Z,15.70
2019-04-29T17:09:03.344Z,15.70
2019-04-29T17:11:36.188Z,15.70
2019-04-29T17:14:10.071Z,15.70
2019-04-29T17:16:37.696Z,15.60
2019-04-29T17:19:07.572Z,15.60
2019-04-29T17:21:37.422Z,15.50
2019-04-29T17:24:08.302Z,15.50
2019-04-29T17:26:56.116Z,15.40
2019-04-29T17:29:48.908Z,15.40
2019-04-29T17:32:13.685Z,15.30
2019-04-29T17:35:17.001Z,15.30
2019-04-29T17:37:18.969Z,15.30
2019-04-29T17:39:48.820Z,15.20
2019-04-29T17:42:18.723Z,15.10
2019-04-29T17:44:48.524Z,15.10
2019-04-29T17:47:20.010Z,15.00
2019-04-29T17:50:06.617Z,15.00
2019-04-29T17:52:37.450Z,15.00
2019-04-29T17:55:15.176Z,14.90
2019-04-29T17:57:50.284Z,14.90
2019-04-29T18:00:41.362Z,14.90
2019-04-29T18:03:07.314Z,14.80
2019-04-29T18:05:52.946Z,14.80
2019-04-29T18:08:18.936Z,14.70
2019-04-29T18:10:51.470Z,14.70
2019-04-29T18:13:24.655Z,14.60
2019-04-29T18:16:01.589Z,14.60
2019-04-29T18:18:28.592Z,14.50
2019-04-29T18:21:08.883Z,14.50
2019-04-29T18:23:59.263Z,14.50
2019-04-29T18:26:38.768Z,14.40
2019-04-29T18:29:08.736Z,14.40
2019-04-29T18:31:38.617Z,14.30
2019-04-29T18:34:09.375Z,14.30
2019-04-29T18:36:39.259Z,14.30
2019-04-29T18:39:11.227Z,14.20
2019-04-29T18:41:41.035Z,14.20
2019-04-29T18:44:18.905Z,14.20
2019-04-29T18:46:45.960Z,14.20
2019-04-29T18:49:15.854Z,14.10
2019-04-29T18:51:45.617Z,14.10
2019-04-29T18:54:16.599Z,14.10
2019-04-29T18:56:46.547Z,14.00
2019-04-29T18:59:21.044Z,14.00
2019-04-29T19:01:47.937Z,14.00
2019-04-29T19:04:28.412Z,14.00
2019-04-29T19:07:02.183Z,13.90
2019-04-29T19:09:35.707Z,13.90
2019-04-29T19:12:05.287Z,13.90
2019-04-29T19:14:36.357Z,13.90
2019-04-29T19:17:06.362Z,13.90
2019-04-29T19:19:39.297Z,13.80
2019-04-29T19:22:09.328Z,13.80
2019-04-29T19:24:39.500Z,13.80
2019-04-29T19:27:10.171Z,13.80
2019-04-29T19:29:43.257Z,13.70
2019-04-29T19:32:12.018Z,13.70
2019-04-29T19:34:43.452Z,13.70
2019-04-29T19:37:15.268Z,13.70
2019-04-29T19:39:45.020Z,13.60
2019-04-29T19:42:15.646Z,13.60
2019-04-29T19:44:46.270Z,13.60
2019-04-29T19:47:16.759Z,13.60
2019-04-29T19:49:46.668Z,13.60
2019-04-29T19:52:27.883Z,13.60
2019-04-29T19:54:47.984Z,13.50
2019-04-29T19:57:18.922Z,13.50
2019-04-29T19:59:51.872Z,13.50
2019-04-29T20:02:21.351Z,13.50
2019-04-29T20:05:08.973Z,13.50
2019-04-29T20:07:42.167Z,13.50
2019-04-29T20:10:13.225Z,13.50
2019-04-29T20:12:46.177Z,13.40
2019-04-29T20:15:16.679Z,13.40
2019-04-29T20:17:51.826Z,13.40
2019-04-29T20:20:25.305Z,13.30
2019-04-29T20:22:55.696Z,13.30
2019-04-29T20:25:30.325Z,13.30
2019-04-29T20:28:05.422Z,13.30
2019-04-29T20:30:29.011Z,13.20
2019-04-29T20:33:01.091Z,13.20
2019-04-29T20:35:30.495Z,13.20
2019-04-29T20:38:00.551Z,13.20
2019-04-29T20:40:35.243Z,13.20
2019-04-29T20:43:02.285Z,13.20
2019-04-29T20:45:32.384Z,13.20
2019-04-29T20:48:02.337Z,13.20
2019-04-29T20:50:32.450Z,13.20
2019-04-29T20:53:09.906Z,13.20
2019-04-29T20:55:39.868Z,13.20
2019-04-29T20:58:10.058Z,13.10
2019-04-29T21:00:40.310Z,13.10
2019-04-29T21:03:11.619Z,13.10
2019-04-29T21:05:48.255Z,13.10
2019-04-29T21:08:16.205Z,13.10
2019-04-29T21:10:48.222Z,13.10
2019-04-29T21:13:25.643Z,13.10
2019-04-29T21:16:05.153Z,13.10
2019-04-29T21:18:35.732Z,13.00
2019-04-29T21:21:07.876Z,13.10
2019-04-29T21:23:38.923Z,13.00
2019-04-29T21:26:08.913Z,13.00
2019-04-29T21:28:41.827Z,13.00
2019-04-29T21:31:16.569Z,12.90
2019-04-29T21:33:45.605Z,12.90
2019-04-29T21:36:17.260Z,12.90
2019-04-29T21:39:06.132Z,12.90
2019-04-29T21:41:37.983Z,12.90
2019-04-29T21:44:07.854Z,12.90
2019-04-29T21:46:37.650Z,12.90
2019-04-29T21:49:11.629Z,12.90
2019-04-29T21:51:41.727Z,12.90
2019-04-29T21:54:14.241Z,12.90
2019-04-29T21:56:46.337Z,12.90
2019-04-29T21:59:13.606Z,12.90
2019-04-29T22:01:44.844Z,12.90
2019-04-29T22:04:14.824Z,12.90
2019-04-29T22:06:45.871Z,12.90
2019-04-29T22:09:17.907Z,12.90
2019-04-29T22:11:47.713Z,12.90
2019-04-29T22:14:17.882Z,12.80
2019-04-29T22:16:53.656Z,12.80
2019-04-29T22:19:24.635Z,12.80
2019-04-29T22:21:52.745Z,12.80
2019-04-29T22:24:26.133Z,12.80
2019-04-29T22:26:56.496Z,12.80
2019-04-29T22:29:25.323Z,12.80
2019-04-29T22:31:55.911Z,12.80
2019-04-29T22:34:25.914Z,12.80
2019-04-29T22:36:58.264Z,12.70
2019-04-29T22:39:30.143Z,12.70
2019-04-29T22:42:03.105Z,12.70
2019-04-29T22:44:32.918Z,12.70
2019-04-29T22:47:02.971Z,12.70
2019-04-29T22:49:32.788Z,12.70
2019-04-29T22:52:02.830Z,12.60
2019-04-29T22:54:32.633Z,12.60
2019-04-29T22:57:02.453Z,12.60
2019-04-29T22:59:32.252Z,12.60
2019-04-29T23:02:02.049Z,12.60
2019-04-29T23:04:31.828Z,12.50
2019-04-29T23:07:01.622Z,12.50
2019-04-29T23:09:31.415Z,12.50
2019-04-29T23:12:01.215Z,12.50
2019-04-29T23:14:31.014Z,12.50
2019-04-29T23:17:00.819Z,12.50
2019-04-29T23:19:30.612Z,12.40
2019-04-29T23:22:02.050Z,12.40
2019-04-29T23:24:39.470Z,12.30
2019-04-29T23:27:11.651Z,12.30
2019-04-29T23:29:43.365Z,12.20
2019-04-29T23:32:12.242Z,12.20
2019-04-29T23:34:42.023Z,12.20
2019-04-29T23:37:11.830Z,12.20
2019-04-29T23:39:41.620Z,12.30
2019-04-29T23:42:12.426Z,12.30
2019-04-29T23:44:44.218Z,12.30
2019-04-29T23:47:15.832Z,12.30
2019-04-29T23:49:46.780Z,12.30
2019-04-29T23:52:17.890Z,12.30
2019-04-29T23:54:48.651Z,12.30
2019-04-29T23:57:27.324Z,12.30
